Airfield :
LOGIN :

Register | Disclaimer

   EN    FR    IT 

 










Legend :    VFR   Marginal VFR   IFR   Intensive IFR   Very Intensive IFR
Visi :
Ceiling :
>= 8 km
>= 3000ft
5 to 8 km
1000 to 3000 ft
1500m to 5 km
500 to 1000 ft
800 to 1500m
200 to 500 ft
< 800m
< 200 ft
Symbols :   Thunderstorms  Fog  Heavy snow  Heavy precipitations  Wind > 20 kt
SIGMETs :     Misc.  Thunderstorms  Icing  Turbulence  Mountain Waves  Volcanic Ashes







- Airport Elevation : 600 ft
- IATA code : VIE


LOWW - Vienna Schwechat

CURRENT METAR :
  • 191950Z 33008KT 7000 RA FEW005 SCT008 BKN012 11/10 Q1013 TEMPO FEW005 BKN009

EXPIRED METARs :
  • 191920Z 33009KT 300V360 9999 RA FEW005 SCT008 BKN013 11/10 Q1013 TEMPO -RA SCT013 OVC030
  • 191850Z 31013KT 7000 RA FEW008 SCT016 BKN018 11/10 Q1013 TEMPO -RA BKN012 OVC030
  • 191820Z 32010KT 8000 RA FEW008 SCT013 BKN019 11/10 Q1013 TEMPO -RA BKN012 OVC030
  • 191750Z 32009KT 9999 RA FEW013 SCT015 BKN017 11/10 Q1013 TEMPO -RA BKN012 OVC030
  • 191720Z 32009KT 9999 -RA FEW016 BKN020 11/10 Q1013 TEMPO 4000 RA BKN012 OVC040

TAF TAF LOWW
Valid from the 19 at 18:00 until the 21 at 00:00 UTC


191715Z 1918/2024 33012KT 9999 -RA FEW010 BKN030 OVC050 TX12/2012Z TN10/2003Z
TEMPO 1918/2015 33015KT 4000 RA FEW005 BKN008 OVC020
PROB30
TEMPO 2000/2006 33018G28KT 2500 +RA BR BKN005 OVC010
TEMPO 2006/2016 33018G28KT
FM201800 33012KT 9999 FEW015 SCT030 BKN060
No reported NOTAMs for that airfield.



MET'MAP, your aeronautical weather chart ! - Copyright ORBIFLY December 2007 - Disclaimer

ORBIFLY MET'MAP TEAM :

Programming & Development : Alexandra Zaïnal
Concept & Development : Baudouin d'Aumeries
Co-Development & Prog : Marc-Olivier Méhu
Technical & hardware support : Manuel Goepfert

Contact : metmap@orbifly.com




SOURCES & CREDITS :

   NOAA